Time;durP1;ratioP1;P1;durP2;ratioP2;P2;SDS_P1;SDS_P2;PMS_P1;PMS_P2;Temp;Humidity;BMP_temperature;BMP_pressure;BME280_temperature;BME280_humidity;BME280_pressure;Samples;Min_cycle;Max_cycle;Signal;HPM_P1;HPM_P2
2023/03/20 00:02:17;;;;;;;21.63;15.20;;;;;;;;;;5110794;27;20515;-86
2023/03/20 00:04:43;;;;;;;21.77;16.07;;;;;;;;;;5096915;28;20424;-86
2023/03/20 00:07:11;;;;;;;26.73;16.83;;;;;;;;;;5134719;28;20427;-86
2023/03/20 00:09:38;;;;;;;22.93;16.63;;;;;;;;;;5136656;28;20439;-86
2023/03/20 00:12:06;;;;;;;18.83;15.47;;;;;;;;;;5364312;22;20452;-85
2023/03/20 00:14:34;;;;;;;14.40;12.37;;;;;;;;;;5254743;22;20473;-87
2023/03/20 00:17:01;;;;;;;12.97;10.23;;;;;;;;;;5098245;28;20469;-85
2023/03/20 00:19:30;;;;;;;14.40;11.10;;;;;;;;;;5116850;28;20428;-86
2023/03/20 00:21:57;;;;;;;11.10;9.23;;;;;;;;;;5104354;28;20420;-84
2023/03/20 00:24:24;;;;;;;9.83;8.83;;;;;;;;;;5085086;28;20439;-83
2023/03/20 00:26:51;;;;;;;13.20;9.57;;;;;;;;;;5087636;28;20507;-84
2023/03/20 00:29:23;;;;;;;10.17;9.20;;;;;;;;;;5081428;28;20478;-84
2023/03/20 00:31:49;;;;;;;9.87;8.73;;;;;;;;;;5088074;28;20405;-84
2023/03/20 00:34:16;;;;;;;10.77;9.33;;;;;;;;;;5089726;28;20434;-84
2023/03/20 00:36:42;;;;;;;9.77;8.83;;;;;;;;;;5089051;28;20471;-85
2023/03/20 00:39:08;;;;;;;13.60;8.83;;;;;;;;;;5075866;28;20446;-85
2023/03/20 00:41:41;;;;;;;10.33;8.13;;;;;;;;;;5095448;28;20418;-86
2023/03/20 00:44:07;;;;;;;9.23;8.23;;;;;;;;;;5100156;28;20416;-85
2023/03/20 00:46:36;;;;;;;10.03;8.90;;;;;;;;;;5093976;28;20413;-84
2023/03/20 00:49:02;;;;;;;12.90;9.20;;;;;;;;;;5113045;28;20424;-86
2023/03/20 00:51:28;;;;;;;11.10;9.17;;;;;;;;;;5117627;28;20456;-85
2023/03/20 00:53:54;;;;;;;9.20;7.97;;;;;;;;;;5117822;28;20424;-87
2023/03/20 00:56:34;;;;;;;9.90;8.70;;;;;;;;;;5118327;28;20462;-86
2023/03/20 00:59:01;;;;;;;9.30;8.40;;;;;;;;;;5112720;28;20458;-84
2023/03/20 01:01:28;;;;;;;9.70;8.77;;;;;;;;;;5115526;28;20441;-85
2023/03/20 01:04:00;;;;;;;11.97;10.33;;;;;;;;;;5115498;22;21674;-85
2023/03/20 01:06:27;;;;;;;9.10;8.20;;;;;;;;;;5093321;28;20412;-87
2023/03/20 01:08:56;;;;;;;11.83;9.47;;;;;;;;;;5093967;28;20445;-86
2023/03/20 01:11:23;;;;;;;11.00;9.47;;;;;;;;;;5082346;28;20437;-85
2023/03/20 01:13:52;;;;;;;9.03;8.13;;;;;;;;;;5091942;28;20435;-85
2023/03/20 01:16:22;;;;;;;9.60;8.10;;;;;;;;;;5087385;28;20461;-85
2023/03/20 01:18:51;;;;;;;10.47;8.00;;;;;;;;;;5442971;22;20492;-85
2023/03/20 01:21:18;;;;;;;12.13;9.00;;;;;;;;;;5158052;27;20466;-86
2023/03/20 01:34:09;;;;;;;9.27;8.47;;;;;;;;;;5253002;22;20473;-86
2023/03/20 01:36:36;;;;;;;11.30;7.97;;;;;;;;;;5154735;27;20446;-86
2023/03/20 01:39:02;;;;;;;10.67;8.57;;;;;;;;;;5152589;27;20434;-86
2023/03/20 01:41:34;;;;;;;10.30;8.53;;;;;;;;;;5154473;27;20424;-86
2023/03/20 01:44:15;;;;;;;9.73;8.80;;;;;;;;;;5151773;27;20434;-85
2023/03/20 01:46:42;;;;;;;13.30;10.30;;;;;;;;;;5144706;27;20401;-84
2023/03/20 01:49:20;;;;;;;10.17;9.23;;;;;;;;;;5155048;27;20528;-85
2023/03/20 01:51:47;;;;;;;8.93;8.07;;;;;;;;;;5158102;27;20505;-85
2023/03/20 01:54:19;;;;;;;11.50;9.53;;;;;;;;;;5157574;27;20485;-86
2023/03/20 01:56:49;;;;;;;10.40;8.67;;;;;;;;;;5156952;27;20478;-86
2023/03/20 01:59:34;;;;;;;10.00;9.00;;;;;;;;;;5155211;27;20417;-86
2023/03/20 02:02:02;;;;;;;11.07;8.90;;;;;;;;;;5587297;22;20474;-85
2023/03/20 02:04:30;;;;;;;9.60;8.60;;;;;;;;;;5120086;28;20451;-85
2023/03/20 02:06:56;;;;;;;13.17;10.03;;;;;;;;;;5119502;28;20437;-85
2023/03/20 02:09:22;;;;;;;11.10;9.90;;;;;;;;;;5132014;28;20391;-86
2023/03/20 02:11:49;;;;;;;11.70;8.43;;;;;;;;;;5123114;28;20512;-83
2023/03/20 02:14:18;;;;;;;12.90;9.57;;;;;;;;;;5123851;28;20427;-84
2023/03/20 02:16:44;;;;;;;9.93;8.90;;;;;;;;;;5112894;28;20475;-83
2023/03/20 02:22:04;;;;;;;10.37;9.10;;;;;;;;;;5565852;22;20571;-85
2023/03/20 02:24:36;;;;;;;10.23;9.13;;;;;;;;;;5130980;27;20478;-86
2023/03/20 02:27:09;;;;;;;10.80;9.27;;;;;;;;;;5154802;27;20478;-85
2023/03/20 02:29:58;;;;;;;11.23;8.73;;;;;;;;;;5136609;28;20435;-87
2023/03/20 02:32:24;;;;;;;11.83;9.50;;;;;;;;;;5167213;27;20509;-84
2023/03/20 02:35:09;;;;;;;13.00;9.50;;;;;;;;;;5138405;27;20430;-83
2023/03/20 02:37:54;;;;;;;12.17;9.57;;;;;;;;;;5168405;27;20481;-84
2023/03/20 02:40:24;;;;;;;13.40;9.73;;;;;;;;;;5150217;27;20422;-84
2023/03/20 02:42:50;;;;;;;11.13;9.53;;;;;;;;;;5149927;27;20449;-84
2023/03/20 02:45:27;;;;;;;13.40;8.77;;;;;;;;;;5153761;27;20994;-84
2023/03/20 02:47:56;;;;;;;10.90;9.30;;;;;;;;;;5136827;27;20414;-84
2023/03/20 02:50:35;;;;;;;7.43;6.83;;;;;;;;;;5157359;27;20421;-82
2023/03/20 02:53:20;;;;;;;8.43;7.50;;;;;;;;;;5137925;27;20438;-84
2023/03/20 02:55:55;;;;;;;12.30;8.90;;;;;;;;;;5158602;27;20423;-84
2023/03/20 02:58:36;;;;;;;12.40;8.13;;;;;;;;;;5142070;27;20429;-84
2023/03/20 03:01:10;;;;;;;8.00;7.13;;;;;;;;;;5141923;27;20433;-84
2023/03/20 03:03:44;;;;;;;10.93;8.33;;;;;;;;;;5151050;27;20446;-84
2023/03/20 03:06:12;;;;;;;10.20;7.80;;;;;;;;;;5147694;27;20949;-83
2023/03/20 03:08:42;;;;;;;9.13;7.67;;;;;;;;;;5150762;27;20440;-84
2023/03/20 03:11:09;;;;;;;10.03;8.97;;;;;;;;;;5144173;27;20485;-84
2023/03/20 03:13:37;;;;;;;8.73;7.77;;;;;;;;;;5134570;27;20457;-84
2023/03/20 03:16:06;;;;;;;8.47;7.53;;;;;;;;;;5145921;27;20425;-84
2023/03/20 03:18:33;;;;;;;10.87;8.47;;;;;;;;;;5132613;27;20423;-85
2023/03/20 03:21:00;;;;;;;9.67;7.70;;;;;;;;;;5136145;27;20476;-85
2023/03/20 03:23:36;;;;;;;9.90;8.07;;;;;;;;;;5135808;28;20430;-84
2023/03/20 03:26:04;;;;;;;11.50;9.10;;;;;;;;;;5130799;28;20434;-85
2023/03/20 03:28:37;;;;;;;13.00;9.30;;;;;;;;;;5112779;28;20491;-85
2023/03/20 03:31:08;;;;;;;10.83;9.33;;;;;;;;;;5116379;27;20502;-84
2023/03/20 03:33:37;;;;;;;13.07;8.73;;;;;;;;;;5127069;28;20407;-84
2023/03/20 03:36:16;;;;;;;10.50;8.20;;;;;;;;;;5107883;28;20472;-83
2023/03/20 03:38:58;;;;;;;13.97;9.93;;;;;;;;;;5130373;28;20419;-83
2023/03/20 03:41:33;;;;;;;12.93;9.33;;;;;;;;;;5126497;27;20449;-85
2023/03/20 03:43:59;;;;;;;13.93;10.00;;;;;;;;;;5127203;28;20438;-83
2023/03/20 03:46:29;;;;;;;10.60;9.50;;;;;;;;;;5124400;28;20427;-83
2023/03/20 03:48:57;;;;;;;13.07;9.27;;;;;;;;;;5127742;28;20502;-83
2023/03/20 03:51:25;;;;;;;11.80;9.77;;;;;;;;;;5125981;27;20416;-84
2023/03/20 03:53:55;;;;;;;11.40;9.40;;;;;;;;;;5125204;28;20494;-84
2023/03/20 03:56:23;;;;;;;12.43;9.20;;;;;;;;;;5123862;28;20525;-84
2023/03/20 03:58:51;;;;;;;14.00;9.60;;;;;;;;;;5129201;28;20423;-84
2023/03/20 04:01:17;;;;;;;14.60;10.70;;;;;;;;;;5127841;28;20423;-84
2023/03/20 04:03:48;;;;;;;12.13;8.53;;;;;;;;;;5116944;28;20641;-83
2023/03/20 04:06:15;;;;;;;13.40;9.03;;;;;;;;;;5114575;28;20431;-83
2023/03/20 04:08:41;;;;;;;11.57;8.50;;;;;;;;;;5114135;28;20488;-82
2023/03/20 04:11:08;;;;;;;8.93;8.00;;;;;;;;;;5119171;28;20971;-83
2023/03/20 04:13:34;;;;;;;13.87;8.83;;;;;;;;;;5115033;28;20426;-83
2023/03/20 04:16:00;;;;;;;11.97;9.77;;;;;;;;;;5112781;28;20477;-83
2023/03/20 04:18:26;;;;;;;11.73;10.27;;;;;;;;;;5117688;28;20439;-83
2023/03/20 04:20:53;;;;;;;12.60;9.50;;;;;;;;;;5129605;28;20483;-82
2023/03/20 04:23:19;;;;;;;13.87;9.80;;;;;;;;;;5088871;28;20419;-82
2023/03/20 04:25:45;;;;;;;13.60;9.90;;;;;;;;;;5108013;27;20442;-82
2023/03/20 04:28:15;;;;;;;14.80;10.50;;;;;;;;;;5109331;28;20445;-82
2023/03/20 04:30:43;;;;;;;16.60;10.80;;;;;;;;;;5124393;28;20498;-79
2023/03/20 04:33:10;;;;;;;14.90;10.50;;;;;;;;;;5106292;28;20431;-78
2023/03/20 04:35:36;;;;;;;13.47;10.03;;;;;;;;;;5098913;28;20434;-78
2023/03/20 04:38:05;;;;;;;15.60;12.13;;;;;;;;;;5124329;28;20470;-84
2023/03/20 04:40:31;;;;;;;19.97;11.90;;;;;;;;;;5127950;28;20431;-84
2023/03/20 04:42:57;;;;;;;14.33;10.70;;;;;;;;;;5132067;28;20411;-84
2023/03/20 04:45:23;;;;;;;15.20;11.10;;;;;;;;;;5128438;28;20410;-84
2023/03/20 04:47:49;;;;;;;16.80;12.53;;;;;;;;;;5128009;28;20468;-83
2023/03/20 04:50:15;;;;;;;18.50;12.00;;;;;;;;;;5126697;28;20470;-84
2023/03/20 04:52:41;;;;;;;14.00;9.50;;;;;;;;;;5127260;28;20462;-85
2023/03/20 04:55:07;;;;;;;15.23;9.37;;;;;;;;;;5126933;28;20453;-85
2023/03/20 04:57:33;;;;;;;13.90;10.23;;;;;;;;;;5108704;28;20474;-81
2023/03/20 04:59:59;;;;;;;16.23;11.30;;;;;;;;;;5131427;28;20430;-85
2023/03/20 05:02:26;;;;;;;14.67;10.40;;;;;;;;;;5128813;28;20419;-85
2023/03/20 05:04:52;;;;;;;18.50;11.80;;;;;;;;;;5130351;28;20452;-83
2023/03/20 05:07:18;;;;;;;18.83;14.13;;;;;;;;;;5102067;27;20447;-78
2023/03/20 05:09:44;;;;;;;19.27;10.80;;;;;;;;;;5100508;28;20442;-77
2023/03/20 05:12:10;;;;;;;15.70;10.93;;;;;;;;;;5100981;28;20492;-77
2023/03/20 05:14:36;;;;;;;17.20;12.10;;;;;;;;;;5116155;28;20415;-85
2023/03/20 05:17:02;;;;;;;14.90;10.10;;;;;;;;;;5176543;22;20498;-84
2023/03/20 05:19:28;;;;;;;17.40;10.40;;;;;;;;;;5108768;28;20618;-84
2023/03/20 05:21:54;;;;;;;15.80;10.63;;;;;;;;;;5108480;28;20825;-85
2023/03/20 05:24:20;;;;;;;20.80;12.13;;;;;;;;;;5109563;28;20488;-85
2023/03/20 05:26:46;;;;;;;19.30;12.90;;;;;;;;;;5091263;28;20440;-77
2023/03/20 05:29:12;;;;;;;22.10;12.70;;;;;;;;;;5084459;28;20490;-77
2023/03/20 05:31:39;;;;;;;18.27;12.20;;;;;;;;;;5066486;28;20444;-85
2023/03/20 05:34:06;;;;;;;19.20;10.50;;;;;;;;;;5105234;28;20519;-83
2023/03/20 05:36:32;;;;;;;15.33;10.17;;;;;;;;;;5093389;28;20890;-84
2023/03/20 05:38:58;;;;;;;14.27;9.87;;;;;;;;;;5104547;28;20412;-85
2023/03/20 05:41:24;;;;;;;16.93;9.07;;;;;;;;;;5099711;28;20617;-84
2023/03/20 05:43:50;;;;;;;14.27;9.90;;;;;;;;;;5100515;28;20460;-85
2023/03/20 05:46:15;;;;;;;19.30;12.47;;;;;;;;;;5101634;28;20689;-85
2023/03/20 05:48:44;;;;;;;10.17;7.70;;;;;;;;;;5102074;28;20444;-82
2023/03/20 05:51:10;;;;;;;14.60;9.70;;;;;;;;;;5103721;28;20901;-85
2023/03/20 05:53:36;;;;;;;15.53;9.60;;;;;;;;;;5094060;28;20441;-83
2023/03/20 05:56:02;;;;;;;16.30;10.20;;;;;;;;;;5100957;28;20438;-83
2023/03/20 05:58:29;;;;;;;13.87;9.23;;;;;;;;;;5092829;28;20484;-85
2023/03/20 06:00:56;;;;;;;15.10;10.10;;;;;;;;;;5101679;28;20561;-84
2023/03/20 06:03:22;;;;;;;12.10;8.47;;;;;;;;;;5103377;28;20443;-85
2023/03/20 06:05:48;;;;;;;19.73;9.83;;;;;;;;;;5100637;28;21000;-84
2023/03/20 06:08:14;;;;;;;13.90;9.50;;;;;;;;;;5085194;28;20446;-84
2023/03/20 06:10:41;;;;;;;13.93;8.63;;;;;;;;;;5098825;28;20521;-85
2023/03/20 06:13:07;;;;;;;15.70;9.67;;;;;;;;;;5081813;28;20860;-82
2023/03/20 06:15:33;;;;;;;12.37;8.57;;;;;;;;;;5117195;28;20449;-83
2023/03/20 06:17:59;;;;;;;15.37;9.40;;;;;;;;;;5108825;28;20497;-84
2023/03/20 06:20:25;;;;;;;14.30;8.60;;;;;;;;;;5126581;28;20452;-81
2023/03/20 06:22:52;;;;;;;13.90;8.53;;;;;;;;;;5114184;28;20630;-85
2023/03/20 06:25:18;;;;;;;14.03;9.00;;;;;;;;;;5106922;28;20430;-84
2023/03/20 06:27:46;;;;;;;10.13;7.40;;;;;;;;;;5124236;28;20494;-84
2023/03/20 06:30:12;;;;;;;11.03;8.60;;;;;;;;;;5124258;28;20518;-84
2023/03/20 06:32:38;;;;;;;12.87;7.93;;;;;;;;;;5117733;28;20448;-85
2023/03/20 06:35:04;;;;;;;14.50;9.83;;;;;;;;;;5121560;28;21215;-82
2023/03/20 06:37:31;;;;;;;10.10;8.20;;;;;;;;;;5103412;28;20542;-85
2023/03/20 06:39:57;;;;;;;11.20;8.77;;;;;;;;;;5123924;28;20736;-79
2023/03/20 06:42:23;;;;;;;10.63;8.37;;;;;;;;;;5110003;28;20415;-85
2023/03/20 06:44:49;;;;;;;11.47;8.60;;;;;;;;;;5105857;28;20521;-83
2023/03/20 06:47:16;;;;;;;11.70;7.97;;;;;;;;;;5127930;28;20383;-79
2023/03/20 06:49:45;;;;;;;10.00;7.63;;;;;;;;;;5115737;28;20435;-85
2023/03/20 06:52:16;;;;;;;8.97;8.07;;;;;;;;;;5125852;28;20399;-83
2023/03/20 06:54:42;;;;;;;11.50;8.80;;;;;;;;;;5110026;27;20435;-81
2023/03/20 06:57:08;;;;;;;13.27;8.47;;;;;;;;;;5109407;28;20875;-85
2023/03/20 06:59:35;;;;;;;10.50;7.90;;;;;;;;;;5104630;28;20430;-83
2023/03/20 07:02:01;;;;;;;9.97;6.87;;;;;;;;;;5129731;28;20423;-84
2023/03/20 07:04:27;;;;;;;16.17;8.77;;;;;;;;;;5122984;27;20473;-79
2023/03/20 07:06:53;;;;;;;12.07;8.47;;;;;;;;;;5119050;28;20423;-83
2023/03/20 07:09:22;;;;;;;14.40;8.53;;;;;;;;;;5121210;27;20434;-83
2023/03/20 07:11:48;;;;;;;11.07;8.23;;;;;;;;;;5123088;28;20434;-85
2023/03/20 07:14:14;;;;;;;10.33;7.60;;;;;;;;;;5100408;27;20440;-84
2023/03/20 07:16:41;;;;;;;11.67;8.80;;;;;;;;;;5104319;28;20496;-84
2023/03/20 07:19:07;;;;;;;12.53;8.30;;;;;;;;;;5083129;28;20440;-82
2023/03/20 07:21:33;;;;;;;10.77;8.20;;;;;;;;;;5087019;28;20849;-84
2023/03/20 07:24:03;;;;;;;12.40;8.00;;;;;;;;;;5085074;28;20432;-85
2023/03/20 07:26:29;;;;;;;10.53;7.77;;;;;;;;;;5077615;28;20457;-79
2023/03/20 07:28:55;;;;;;;9.30;7.13;;;;;;;;;;5063913;28;20524;-80
2023/03/20 07:31:22;;;;;;;14.20;6.93;;;;;;;;;;5081966;28;20531;-81
2023/03/20 07:33:48;;;;;;;9.50;6.73;;;;;;;;;;5074221;28;20801;-80
2023/03/20 07:36:15;;;;;;;5.60;5.13;;;;;;;;;;5062266;28;20448;-81
2023/03/20 07:38:41;;;;;;;5.60;5.10;;;;;;;;;;5083795;28;20435;-82
2023/03/20 07:41:07;;;;;;;9.43;5.57;;;;;;;;;;5089895;28;20577;-81
2023/03/20 07:43:33;;;;;;;6.03;5.43;;;;;;;;;;5081671;28;20492;-81
2023/03/20 07:46:03;;;;;;;6.50;4.77;;;;;;;;;;5090578;28;20483;-82
2023/03/20 07:48:29;;;;;;;7.03;6.10;;;;;;;;;;5077485;28;20835;-80
2023/03/20 07:50:55;;;;;;;4.47;4.10;;;;;;;;;;5077973;28;20522;-81
2023/03/20 07:53:21;;;;;;;9.80;6.20;;;;;;;;;;5080533;28;20986;-79
2023/03/20 07:55:47;;;;;;;6.87;5.77;;;;;;;;;;5089366;28;20404;-82
2023/03/20 07:58:13;;;;;;;8.13;6.50;;;;;;;;;;5087177;28;20478;-79
2023/03/20 08:00:39;;;;;;;9.10;6.30;;;;;;;;;;5097752;28;20408;-81
2023/03/20 08:03:05;;;;;;;6.80;6.20;;;;;;;;;;5071381;28;21148;-80
2023/03/20 08:05:31;;;;;;;8.57;7.03;;;;;;;;;;5078799;28;20528;-80
2023/03/20 08:07:57;;;;;;;14.27;7.97;;;;;;;;;;5085865;28;20436;-80
2023/03/20 08:10:23;;;;;;;8.80;7.40;;;;;;;;;;5070338;28;20688;-80
2023/03/20 08:12:49;;;;;;;8.23;6.67;;;;;;;;;;5076509;28;20438;-80
2023/03/20 08:15:15;;;;;;;8.80;7.17;;;;;;;;;;5079508;28;20824;-80
2023/03/20 08:17:43;;;;;;;8.27;7.43;;;;;;;;;;5094201;28;21006;-79
2023/03/20 08:20:12;;;;;;;10.13;5.63;;;;;;;;;;5091138;28;20504;-81
2023/03/20 08:22:38;;;;;;;11.83;7.97;;;;;;;;;;5096197;28;20535;-80
2023/03/20 08:25:05;;;;;;;8.20;7.43;;;;;;;;;;5100511;28;20442;-79
2023/03/20 08:27:31;;;;;;;8.33;7.07;;;;;;;;;;5093566;28;20464;-80
2023/03/20 08:29:56;;;;;;;10.87;8.20;;;;;;;;;;5104915;28;20967;-85
2023/03/20 08:32:23;;;;;;;8.87;7.37;;;;;;;;;;5105255;28;20427;-84
2023/03/20 08:34:49;;;;;;;9.33;7.03;;;;;;;;;;5106646;27;20416;-82
2023/03/20 08:37:15;;;;;;;7.63;6.40;;;;;;;;;;5089868;28;20616;-83
2023/03/20 08:39:40;;;;;;;6.60;5.17;;;;;;;;;;5105083;27;21028;-83
2023/03/20 08:42:06;;;;;;;9.20;8.40;;;;;;;;;;5115729;28;20544;-82
2023/03/20 08:44:32;;;;;;;11.53;7.97;;;;;;;;;;5125423;28;20421;-84
2023/03/20 08:46:58;;;;;;;8.40;6.20;;;;;;;;;;5109845;28;20466;-82
2023/03/20 08:49:24;;;;;;;8.33;6.23;;;;;;;;;;5110148;28;20437;-85
2023/03/20 08:51:50;;;;;;;10.23;6.80;;;;;;;;;;5115511;28;20423;-82
2023/03/20 08:54:17;;;;;;;7.07;5.70;;;;;;;;;;5126058;28;20422;-85
2023/03/20 08:56:44;;;;;;;9.23;5.77;;;;;;;;;;5095101;28;20473;-82
2023/03/20 08:59:10;;;;;;;10.63;6.00;;;;;;;;;;5120409;28;20446;-85
2023/03/20 09:01:36;;;;;;;7.90;5.63;;;;;;;;;;5079589;28;21041;-84
2023/03/20 09:04:02;;;;;;;6.27;5.60;;;;;;;;;;5113904;27;20440;-85
2023/03/20 09:06:28;;;;;;;8.50;6.20;;;;;;;;;;5110805;28;20811;-86
2023/03/20 09:08:58;;;;;;;5.43;4.80;;;;;;;;;;5093623;27;20827;-84
2023/03/20 09:11:24;;;;;;;11.77;7.13;;;;;;;;;;5113773;28;20416;-83
2023/03/20 09:13:50;;;;;;;8.37;5.87;;;;;;;;;;5102249;28;20498;-83
2023/03/20 09:16:16;;;;;;;10.27;6.07;;;;;;;;;;5122146;28;20450;-84
2023/03/20 09:18:42;;;;;;;5.93;5.30;;;;;;;;;;5121175;28;20446;-82
2023/03/20 09:21:08;;;;;;;7.70;6.00;;;;;;;;;;5120883;28;20506;-86
2023/03/20 09:23:37;;;;;;;4.77;4.37;;;;;;;;;;5123086;28;20434;-84
2023/03/20 09:26:03;;;;;;;6.90;6.20;;;;;;;;;;5128739;28;20406;-86
2023/03/20 09:28:29;;;;;;;7.33;5.20;;;;;;;;;;5130466;28;20538;-84
2023/03/20 09:30:56;;;;;;;6.40;5.80;;;;;;;;;;5105489;28;20428;-87
2023/03/20 09:33:22;;;;;;;6.90;6.13;;;;;;;;;;5125813;28;20442;-83
2023/03/20 09:35:48;;;;;;;6.87;6.27;;;;;;;;;;5125094;28;20422;-82
2023/03/20 09:38:14;;;;;;;4.43;4.20;;;;;;;;;;5120254;28;20523;-82
2023/03/20 09:40:50;;;;;;;5.80;5.00;;;;;;;;;;5101097;28;20404;-82
2023/03/20 09:43:26;;;;;;;6.20;5.60;;;;;;;;;;5103640;28;20452;-83
2023/03/20 09:46:00;;;;;;;7.80;4.17;;;;;;;;;;5112662;28;20423;-85
2023/03/20 09:48:40;;;;;;;5.43;4.93;;;;;;;;;;5107601;28;20445;-80
2023/03/20 09:51:06;;;;;;;4.17;3.77;;;;;;;;;;5102016;28;20488;-80
2023/03/20 09:53:45;;;;;;;4.80;2.97;;;;;;;;;;5107176;28;20447;-80
2023/03/20 09:56:14;;;;;;;3.30;3.10;;;;;;;;;;5109538;28;20569;-81
2023/03/20 09:58:41;;;;;;;8.67;3.73;;;;;;;;;;5103356;28;20525;-82
2023/03/20 10:01:11;;;;;;;4.70;3.17;;;;;;;;;;5104836;28;20400;-82
2023/03/20 10:03:57;;;;;;;2.50;2.40;;;;;;;;;;5105544;28;20956;-84
2023/03/20 10:06:24;;;;;;;5.67;2.83;;;;;;;;;;5102837;28;20808;-83
2023/03/20 10:08:51;;;;;;;4.10;2.20;;;;;;;;;;5102953;28;20546;-83
2023/03/20 10:11:45;;;;;;;3.53;2.47;;;;;;;;;;5100237;28;20419;-84
2023/03/20 10:14:15;;;;;;;3.10;1.80;;;;;;;;;;5093650;28;20994;-82
2023/03/20 10:16:56;;;;;;;4.53;2.33;;;;;;;;;;5098834;28;20485;-81
2023/03/20 10:19:25;;;;;;;2.40;2.20;;;;;;;;;;5100202;28;20455;-81
2023/03/20 10:21:55;;;;;;;2.23;2.20;;;;;;;;;;5100757;28;20434;-83
2023/03/20 10:24:21;;;;;;;2.67;2.47;;;;;;;;;;5094256;28;20427;-85
2023/03/20 10:26:51;;;;;;;2.20;2.10;;;;;;;;;;5101697;28;20484;-83
2023/03/20 10:29:17;;;;;;;6.27;1.90;;;;;;;;;;5079756;28;20500;-83
2023/03/20 10:31:47;;;;;;;2.70;2.50;;;;;;;;;;5100219;28;20432;-82
2023/03/20 10:34:19;;;;;;;2.67;2.50;;;;;;;;;;5107290;28;20495;-81
2023/03/20 10:36:45;;;;;;;4.90;2.57;;;;;;;;;;5105359;28;20470;-81
2023/03/20 10:39:11;;;;;;;6.40;2.53;;;;;;;;;;5079673;28;20870;-81
2023/03/20 10:41:38;;;;;;;3.33;3.13;;;;;;;;;;5101493;28;20431;-83
2023/03/20 10:44:07;;;;;;;3.53;2.30;;;;;;;;;;5101024;28;20449;-83
2023/03/20 10:46:35;;;;;;;3.10;1.80;;;;;;;;;;5081284;28;20449;-84
2023/03/20 10:49:21;;;;;;;3.17;2.00;;;;;;;;;;5098176;28;20988;-84
2023/03/20 10:51:59;;;;;;;4.87;2.67;;;;;;;;;;5094378;28;20518;-81
2023/03/20 10:54:31;;;;;;;8.57;3.13;;;;;;;;;;5101153;28;20825;-82
2023/03/20 10:56:59;;;;;;;2.00;1.90;;;;;;;;;;5096602;28;20504;-81
2023/03/20 10:59:26;;;;;;;6.13;2.40;;;;;;;;;;5100941;28;20869;-80
2023/03/20 11:01:52;;;;;;;10.90;3.47;;;;;;;;;;5103840;28;20427;-80
2023/03/20 11:04:18;;;;;;;3.50;3.33;;;;;;;;;;5107713;28;20438;-84
2023/03/20 11:06:53;;;;;;;3.30;3.20;;;;;;;;;;5127433;28;20450;-84
2023/03/20 11:09:21;;;;;;;2.30;2.20;;;;;;;;;;5127310;28;20442;-82
2023/03/20 11:11:47;;;;;;;1.60;1.37;;;;;;;;;;5113065;28;20431;-82
2023/03/20 11:14:18;;;;;;;2.90;2.70;;;;;;;;;;5118944;27;20461;-81
2023/03/20 11:16:50;;;;;;;3.03;2.77;;;;;;;;;;5129382;27;20462;-80
2023/03/20 11:19:16;;;;;;;3.27;3.07;;;;;;;;;;5090593;28;20433;-83
2023/03/20 11:21:47;;;;;;;3.23;2.70;;;;;;;;;;5110046;28;20431;-81
2023/03/20 11:24:22;;;;;;;2.47;2.33;;;;;;;;;;5110294;28;20443;-80
2023/03/20 11:26:48;;;;;;;2.40;2.20;;;;;;;;;;5082510;28;20509;-78
2023/03/20 11:29:26;;;;;;;4.67;3.23;;;;;;;;;;5090495;28;20444;-83
2023/03/20 11:31:52;;;;;;;1.60;1.60;;;;;;;;;;5117927;28;20427;-83
2023/03/20 11:34:18;;;;;;;6.60;1.80;;;;;;;;;;5096652;28;20452;-83
2023/03/20 11:37:05;;;;;;;1.90;1.80;;;;;;;;;;5105678;28;20490;-82
2023/03/20 11:39:32;;;;;;;1.70;1.70;;;;;;;;;;5100844;28;20470;-82
2023/03/20 11:42:01;;;;;;;2.40;2.30;;;;;;;;;;5131805;28;20490;-81
2023/03/20 11:44:36;;;;;;;2.13;2.00;;;;;;;;;;5092144;28;20494;-81
2023/03/20 11:47:25;;;;;;;9.63;2.40;;;;;;;;;;5085802;28;20430;-85
2023/03/20 11:49:55;;;;;;;2.10;1.70;;;;;;;;;;5093709;28;20410;-82
2023/03/20 11:52:24;;;;;;;3.90;2.30;;;;;;;;;;5119853;28;20463;-83
2023/03/20 11:54:52;;;;;;;2.43;2.23;;;;;;;;;;5101230;28;20412;-84
2023/03/20 11:57:37;;;;;;;3.50;2.70;;;;;;;;;;5125538;28;20494;-82
2023/03/20 12:00:15;;;;;;;3.20;2.90;;;;;;;;;;5088724;28;20464;-82
2023/03/20 12:02:43;;;;;;;5.17;3.50;;;;;;;;;;5074629;28;20419;-81
2023/03/20 12:05:34;;;;;;;4.63;4.30;;;;;;;;;;5101568;28;20416;-81
2023/03/20 12:08:12;;;;;;;6.27;3.10;;;;;;;;;;5084429;28;20447;-82
2023/03/20 12:10:41;;;;;;;7.33;3.80;;;;;;;;;;5087597;28;20435;-82
2023/03/20 12:13:13;;;;;;;2.70;2.50;;;;;;;;;;5095383;28;20455;-82
2023/03/20 12:15:46;;;;;;;5.73;2.73;;;;;;;;;;5082124;28;20475;-79
2023/03/20 12:18:14;;;;;;;2.60;2.50;;;;;;;;;;5069883;28;20828;-80
2023/03/20 12:20:40;;;;;;;3.23;3.03;;;;;;;;;;5077961;28;20444;-82
2023/03/20 12:23:12;;;;;;;4.23;2.33;;;;;;;;;;5081609;28;20820;-82
2023/03/20 12:25:47;;;;;;;2.10;2.00;;;;;;;;;;5084094;28;20870;-83
2023/03/20 12:28:32;;;;;;;2.13;1.90;;;;;;;;;;5083139;28;20473;-82
2023/03/20 12:30:58;;;;;;;1.80;1.80;;;;;;;;;;5079201;28;20429;-82
2023/03/20 12:33:50;;;;;;;1.80;1.33;;;;;;;;;;5085917;28;20496;-81
2023/03/20 12:36:18;;;;;;;2.20;2.20;;;;;;;;;;5048588;28;21010;-82
2023/03/20 12:38:45;;;;;;;2.37;2.27;;;;;;;;;;5080693;28;20803;-82
2023/03/20 12:41:29;;;;;;;2.23;2.23;;;;;;;;;;5079318;28;20547;-81
2023/03/20 12:44:14;;;;;;;3.20;2.90;;;;;;;;;;5079788;28;20512;-81
2023/03/20 12:46:51;;;;;;;2.87;2.23;;;;;;;;;;5077485;28;20526;-84
2023/03/20 12:49:22;;;;;;;3.07;2.60;;;;;;;;;;5078621;28;20460;-82
2023/03/20 12:51:49;;;;;;;2.13;2.03;;;;;;;;;;5078422;28;20522;-82
2023/03/20 12:54:26;;;;;;;2.03;1.80;;;;;;;;;;5082145;28;20440;-83
2023/03/20 12:57:00;;;;;;;3.23;1.30;;;;;;;;;;5088262;28;20543;-82
2023/03/20 12:59:33;;;;;;;2.80;2.70;;;;;;;;;;5059890;28;20505;-80
2023/03/20 13:02:09;;;;;;;2.63;2.00;;;;;;;;;;5086164;28;20462;-82
2023/03/20 13:05:01;;;;;;;5.67;4.97;;;;;;;;;;5086894;28;20454;-82
2023/03/20 13:07:45;;;;;;;2.73;1.87;;;;;;;;;;5084021;28;20421;-81
2023/03/20 13:12:44;;;;;;;2.37;2.27;;;;;;;;;;5134347;27;20470;-86
2023/03/20 13:15:23;;;;;;;2.40;2.30;;;;;;;;;;5113809;27;20462;-81
2023/03/20 13:17:58;;;;;;;2.60;2.50;;;;;;;;;;5106318;28;21007;-85
2023/03/20 13:20:25;;;;;;;2.40;2.40;;;;;;;;;;5100773;28;20416;-80
2023/03/20 13:22:54;;;;;;;2.53;2.43;;;;;;;;;;5077013;28;20428;-80
2023/03/20 13:25:29;;;;;;;4.57;3.23;;;;;;;;;;5091559;28;20439;-80
2023/03/20 13:28:05;;;;;;;3.20;2.97;;;;;;;;;;5103570;28;20560;-81
2023/03/20 13:30:37;;;;;;;3.93;2.63;;;;;;;;;;5090639;28;20957;-79
2023/03/20 13:33:13;;;;;;;3.20;2.80;;;;;;;;;;5097906;28;21099;-80
2023/03/20 13:35:58;;;;;;;2.80;2.70;;;;;;;;;;5094628;28;20463;-81
2023/03/20 13:38:26;;;;;;;7.70;3.37;;;;;;;;;;5101461;28;20462;-82
2023/03/20 13:40:58;;;;;;;3.30;3.10;;;;;;;;;;5101481;28;20568;-82
2023/03/20 13:43:39;;;;;;;2.47;2.30;;;;;;;;;;5098457;28;20868;-80
2023/03/20 13:46:23;;;;;;;4.07;3.30;;;;;;;;;;5100751;28;20434;-82
2023/03/20 13:48:50;;;;;;;4.70;2.80;;;;;;;;;;5105044;28;20777;-80
2023/03/20 13:51:16;;;;;;;7.97;2.80;;;;;;;;;;5093377;27;20436;-79
2023/03/20 13:53:51;;;;;;;2.10;2.00;;;;;;;;;;5083457;28;20935;-81
2023/03/20 13:56:20;;;;;;;4.57;3.10;;;;;;;;;;5101897;28;20567;-81
2023/03/20 13:58:57;;;;;;;3.77;3.33;;;;;;;;;;5095724;28;20534;-81
2023/03/20 14:01:38;;;;;;;6.00;4.23;;;;;;;;;;5092672;28;20460;-84
2023/03/20 14:04:08;;;;;;;2.17;2.07;;;;;;;;;;5092762;28;20439;-78
2023/03/20 14:06:34;;;;;;;2.23;2.23;;;;;;;;;;5070103;28;20813;-83
2023/03/20 14:09:00;;;;;;;2.80;2.70;;;;;;;;;;5074279;28;20829;-81
2023/03/20 14:11:35;;;;;;;2.53;2.47;;;;;;;;;;5103773;28;20472;-82
2023/03/20 14:14:26;;;;;;;6.17;2.87;;;;;;;;;;5088140;28;20615;-80
2023/03/20 14:17:11;;;;;;;4.23;3.07;;;;;;;;;;5079217;28;20455;-82
2023/03/20 14:19:38;;;;;;;3.70;1.93;;;;;;;;;;5095226;28;20545;-83
2023/03/20 14:22:05;;;;;;;2.93;2.70;;;;;;;;;;5093421;28;20446;-80
2023/03/20 14:24:34;;;;;;;4.80;2.27;;;;;;;;;;5097801;28;20534;-81
2023/03/20 14:27:01;;;;;;;3.97;3.07;;;;;;;;;;5105276;28;20407;-82
2023/03/20 14:29:30;;;;;;;6.10;3.23;;;;;;;;;;5106871;28;20471;-80
2023/03/20 14:32:26;;;;;;;4.00;2.93;;;;;;;;;;5086086;28;20801;-81
2023/03/20 14:34:52;;;;;;;3.30;2.93;;;;;;;;;;5069572;28;20451;-81
2023/03/20 14:37:28;;;;;;;3.30;2.30;;;;;;;;;;5092610;28;20930;-81
2023/03/20 14:40:07;;;;;;;5.60;2.60;;;;;;;;;;5100898;27;20441;-81
2023/03/20 14:42:33;;;;;;;2.83;2.63;;;;;;;;;;5097846;28;20424;-82
2023/03/20 14:45:17;;;;;;;4.20;3.27;;;;;;;;;;5104301;28;20519;-82
2023/03/20 14:47:46;;;;;;;3.60;3.27;;;;;;;;;;5094485;28;20766;-80
2023/03/20 14:50:41;;;;;;;2.97;2.77;;;;;;;;;;5102668;27;20521;-78
2023/03/20 14:53:16;;;;;;;6.63;3.03;;;;;;;;;;5067925;28;20485;-80
2023/03/20 14:55:48;;;;;;;4.80;2.40;;;;;;;;;;5100965;28;20447;-80
2023/03/20 14:58:35;;;;;;;4.10;3.40;;;;;;;;;;5098536;28;20735;-80
2023/03/20 15:01:03;;;;;;;5.90;2.73;;;;;;;;;;5096724;28;20420;-82
2023/03/20 15:03:29;;;;;;;3.83;2.63;;;;;;;;;;5080337;28;20431;-83
2023/03/20 15:05:57;;;;;;;4.70;2.70;;;;;;;;;;5093126;28;20454;-82
2023/03/20 15:08:25;;;;;;;6.27;3.40;;;;;;;;;;5103614;28;21169;-83